createdAt,value
2022-09-25T00:01:46.569Z,12.67
2022-09-25T00:03:49.196Z,13.37
2022-09-25T00:05:51.798Z,13.63
2022-09-25T00:07:56.579Z,14.03
2022-09-25T00:09:59.535Z,15.63
2022-09-25T00:12:02.317Z,14.10
2022-09-25T00:14:04.969Z,14.50
2022-09-25T00:16:07.965Z,14.50
2022-09-25T00:18:12.230Z,15.50
2022-09-25T00:20:15.623Z,15.07
2022-09-25T00:22:18.521Z,14.33
2022-09-25T00:24:21.229Z,14.77
2022-09-25T00:26:24.307Z,15.27
2022-09-25T00:28:29.147Z,16.53
2022-09-25T00:30:31.802Z,15.90
2022-09-25T00:32:34.759Z,14.67
2022-09-25T00:34:39.342Z,15.63
2022-09-25T00:36:41.899Z,15.50
2022-09-25T00:38:46.206Z,16.30
2022-09-25T00:40:49.229Z,15.83
2022-09-25T00:42:51.819Z,16.77
2022-09-25T00:44:57.519Z,15.20
2022-09-25T00:47:00.301Z,15.73
2022-09-25T00:49:04.934Z,15.33
2022-09-25T00:51:08.766Z,15.50
2022-09-25T00:53:12.766Z,15.73
2022-09-25T00:55:15.341Z,17.10
2022-09-25T00:57:19.495Z,15.60
2022-09-25T00:59:23.427Z,15.07
2022-09-25T01:01:26.080Z,15.43
2022-09-25T01:03:28.671Z,16.40
2022-09-25T01:05:32.900Z,15.80
2022-09-25T01:07:38.482Z,15.33
2022-09-25T01:09:41.358Z,15.60
2022-09-25T01:11:45.117Z,15.90
2022-09-25T01:13:48.214Z,15.93
2022-09-25T01:15:54.913Z,15.53
2022-09-25T01:18:03.109Z,15.90
2022-09-25T01:20:11.330Z,15.00
2022-09-25T01:22:19.483Z,15.20
2022-09-25T01:24:36.330Z,15.30
2022-09-25T01:27:00.442Z,15.00
2022-09-25T01:29:07.723Z,15.47
2022-09-25T01:31:15.654Z,15.00
2022-09-25T01:33:19.434Z,15.93
2022-09-25T01:35:27.064Z,15.03
2022-09-25T01:37:32.319Z,14.17
2022-09-25T01:39:36.723Z,14.50
2022-09-25T01:41:41.630Z,14.93
2022-09-25T01:43:45.294Z,14.17
2022-09-25T01:45:51.268Z,13.67
2022-09-25T01:47:54.357Z,15.43
2022-09-25T01:49:58.881Z,14.03
2022-09-25T01:52:02.061Z,13.80
2022-09-25T01:54:05.902Z,14.20
2022-09-25T01:56:13.417Z,13.53
2022-09-25T01:58:17.372Z,13.70
2022-09-25T02:00:22.783Z,13.60
2022-09-25T02:02:28.152Z,14.20
2022-09-25T02:04:33.103Z,12.10
2022-09-25T02:06:35.925Z,13.70
2022-09-25T02:08:40.647Z,12.77
2022-09-25T02:10:45.915Z,13.60
2022-09-25T02:12:50.074Z,13.60
2022-09-25T02:14:54.205Z,12.17
2022-09-25T02:16:57.428Z,13.60
2022-09-25T02:19:12.804Z,13.10
2022-09-25T02:21:18.230Z,12.97
2022-09-25T02:23:23.650Z,13.47
2022-09-25T02:25:28.418Z,13.50
2022-09-25T02:27:30.973Z,13.13
2022-09-25T02:29:33.573Z,12.90
2022-09-25T02:31:38.893Z,11.80
2022-09-25T02:33:41.798Z,13.03
2022-09-25T02:35:46.753Z,12.00
2022-09-25T02:37:49.343Z,12.57
2022-09-25T02:39:53.231Z,11.83
2022-09-25T02:42:02.773Z,12.43
2022-09-25T02:44:09.556Z,12.10
2022-09-25T02:46:14.871Z,12.50
2022-09-25T02:48:20.392Z,12.57
2022-09-25T02:50:24.911Z,12.90
2022-09-25T02:52:34.264Z,12.77
2022-09-25T02:54:40.545Z,11.90
2022-09-25T02:56:44.448Z,12.33
2022-09-25T02:58:48.612Z,11.83
2022-09-25T03:00:52.526Z,11.60
2022-09-25T03:02:59.488Z,11.40
2022-09-25T03:05:02.248Z,11.03
2022-09-25T03:07:04.837Z,11.00
2022-09-25T03:09:08.766Z,11.63
2022-09-25T03:11:12.341Z,11.77
2022-09-25T03:13:17.200Z,11.50
2022-09-25T03:15:19.798Z,10.40
2022-09-25T03:17:23.470Z,11.20
2022-09-25T03:19:26.474Z,11.27
2022-09-25T03:21:29.042Z,11.27
2022-09-25T03:23:32.162Z,11.47
2022-09-25T03:25:36.713Z,11.10
2022-09-25T03:27:39.293Z,11.50
2022-09-25T03:29:42.194Z,10.50
2022-09-25T03:31:45.471Z,11.30
2022-09-25T03:33:48.197Z,11.10
2022-09-25T03:35:54.352Z,10.20
2022-09-25T03:37:58.157Z,10.63
2022-09-25T03:40:01.188Z,10.80
2022-09-25T03:42:05.644Z,11.00
2022-09-25T03:44:08.251Z,11.03
2022-09-25T03:46:12.441Z,11.17
2022-09-25T03:48:16.259Z,10.53
2022-09-25T03:50:19.032Z,10.90
2022-09-25T03:52:21.931Z,10.80
2022-09-25T03:54:24.525Z,10.20
2022-09-25T03:56:28.198Z,11.13
2022-09-25T03:58:34.983Z,10.00
2022-09-25T04:00:37.748Z,10.37
2022-09-25T04:02:40.444Z,9.63
2022-09-25T04:04:45.699Z,10.63
2022-09-25T04:06:48.284Z,10.03
2022-09-25T04:08:51.010Z,10.20
2022-09-25T04:10:56.195Z,10.10
2022-09-25T04:12:59.299Z,9.83
2022-09-25T04:15:03.221Z,10.10
2022-09-25T04:17:05.802Z,9.27
2022-09-25T04:19:08.388Z,10.90
2022-09-25T04:21:12.102Z,9.50
2022-09-25T04:23:14.674Z,9.43
2022-09-25T04:25:20.782Z,9.80
2022-09-25T04:27:27.799Z,10.20
2022-09-25T04:29:32.218Z,10.70
2022-09-25T04:31:36.151Z,9.40
2022-09-25T04:33:47.857Z,9.80
2022-09-25T04:35:50.448Z,9.50
2022-09-25T04:37:53.469Z,9.80
2022-09-25T04:39:56.066Z,9.87
2022-09-25T04:41:58.621Z,9.10
2022-09-25T04:44:01.431Z,9.80
2022-09-25T04:46:04.658Z,10.33
2022-09-25T04:48:08.700Z,9.83
2022-09-25T04:50:11.300Z,9.30
2022-09-25T04:52:15.322Z,9.40
2022-09-25T04:54:18.364Z,10.03
2022-09-25T04:56:21.549Z,9.00
2022-09-25T04:58:24.103Z,9.10
2022-09-25T05:00:27.655Z,8.67
2022-09-25T05:02:30.835Z,9.67
2022-09-25T05:04:34.884Z,9.50
2022-09-25T05:06:37.467Z,8.97
2022-09-25T05:08:40.010Z,8.93
2022-09-25T05:10:44.266Z,8.33
2022-09-25T05:12:47.318Z,9.13
2022-09-25T05:14:49.899Z,8.87
2022-09-25T05:16:52.531Z,9.27
2022-09-25T05:18:55.801Z,8.50
2022-09-25T05:21:03.391Z,8.67
2022-09-25T05:23:06.006Z,8.90
2022-09-25T05:25:09.614Z,9.10
2022-09-25T05:27:13.047Z,9.20
2022-09-25T05:29:15.637Z,8.40
2022-09-25T05:31:18.311Z,8.63
2022-09-25T05:33:20.983Z,8.17
2022-09-25T05:35:24.483Z,8.80
2022-09-25T05:37:28.506Z,8.10
2022-09-25T05:39:31.174Z,8.77
2022-09-25T05:41:36.133Z,8.10
2022-09-25T05:43:40.271Z,8.40
2022-09-25T05:45:42.853Z,8.30
2022-09-25T05:47:45.498Z,8.07
2022-09-25T05:49:48.465Z,8.37
2022-09-25T05:51:51.519Z,8.27
2022-09-25T05:53:55.651Z,7.60
2022-09-25T05:56:00.022Z,8.70
2022-09-25T05:58:04.666Z,8.90
2022-09-25T06:00:09.201Z,7.57
2022-09-25T06:02:14.806Z,8.13
2022-09-25T06:04:20.322Z,7.47
2022-09-25T06:06:27.520Z,8.30
2022-09-25T06:08:32.044Z,8.07
2022-09-25T06:10:35.984Z,8.27
2022-09-25T06:12:40.438Z,7.50
2022-09-25T06:14:43.144Z,7.77
2022-09-25T06:16:49.807Z,8.03
2022-09-25T06:18:52.946Z,7.40
2022-09-25T06:21:01.143Z,7.87
2022-09-25T06:23:03.916Z,7.90
2022-09-25T06:25:10.624Z,8.30
2022-09-25T06:27:15.232Z,8.20
2022-09-25T06:29:17.784Z,8.53
2022-09-25T06:31:20.526Z,7.90
2022-09-25T06:33:24.303Z,8.13
2022-09-25T06:35:26.914Z,7.80
2022-09-25T06:37:29.882Z,7.83
2022-09-25T06:39:33.931Z,7.80
2022-09-25T06:41:36.688Z,7.27
2022-09-25T06:43:40.612Z,8.43
2022-09-25T06:45:44.063Z,8.20
2022-09-25T06:47:48.748Z,7.60
2022-09-25T06:49:52.425Z,7.50
2022-09-25T06:51:55.626Z,8.10
2022-09-25T06:53:58.671Z,7.73
2022-09-25T06:56:01.697Z,8.27
2022-09-25T06:58:04.383Z,7.70
2022-09-25T07:00:09.754Z,7.87
2022-09-25T07:02:24.746Z,8.10
2022-09-25T07:04:28.028Z,7.50
2022-09-25T07:06:31.644Z,7.80
2022-09-25T07:08:36.405Z,8.40
2022-09-25T07:10:41.658Z,8.47
2022-09-25T07:12:48.506Z,8.23
2022-09-25T07:14:51.209Z,9.57
2022-09-25T07:16:55.546Z,8.83
2022-09-25T07:19:00.523Z,9.03
2022-09-25T07:21:03.788Z,9.00
2022-09-25T07:23:06.376Z,9.57
2022-09-25T07:25:09.476Z,9.27
2022-09-25T07:27:12.012Z,9.60
2022-09-25T07:29:15.029Z,9.37
2022-09-25T07:31:19.113Z,9.33
2022-09-25T07:33:25.382Z,9.57
2022-09-25T07:35:28.746Z,9.47
2022-09-25T07:37:32.362Z,10.00
2022-09-25T07:39:35.813Z,9.40
2022-09-25T07:41:38.926Z,9.60
2022-09-25T07:43:42.148Z,10.57
2022-09-25T07:45:52.264Z,10.13
2022-09-25T07:47:57.155Z,10.20
2022-09-25T07:50:01.292Z,10.30
2022-09-25T07:52:06.532Z,8.97
2022-09-25T07:54:09.198Z,10.40
2022-09-25T07:56:12.649Z,10.27
2022-09-25T07:58:15.476Z,9.80
2022-09-25T08:00:18.530Z,11.27
2022-09-25T08:02:21.493Z,10.97
2022-09-25T08:04:24.092Z,11.03
2022-09-25T08:06:27.982Z,10.57
2022-09-25T08:08:30.689Z,10.03
2022-09-25T08:10:33.236Z,11.00
2022-09-25T08:12:37.019Z,10.13
2022-09-25T08:15:00.794Z,10.80
2022-09-25T08:17:03.351Z,10.00
2022-09-25T08:19:05.972Z,10.83
2022-09-25T08:21:09.249Z,11.73
2022-09-25T08:23:13.077Z,10.80
2022-09-25T08:25:15.722Z,10.57
2022-09-25T08:27:18.428Z,9.87
2022-09-25T08:29:21.502Z,11.10
2022-09-25T08:31:24.357Z,10.97
2022-09-25T08:33:27.436Z,11.07
2022-09-25T08:35:30.029Z,10.97
2022-09-25T08:37:32.884Z,10.50
2022-09-25T08:39:36.774Z,11.13
2022-09-25T08:41:44.410Z,10.80
2022-09-25T08:43:50.901Z,10.70
2022-09-25T08:46:07.598Z,11.60
2022-09-25T08:48:22.333Z,11.00
2022-09-25T08:50:25.618Z,10.80
2022-09-25T08:52:28.617Z,10.40
2022-09-25T08:54:32.518Z,11.17
2022-09-25T08:56:37.468Z,11.07
2022-09-25T08:58:43.156Z,11.00
2022-09-25T09:00:46.107Z,10.87
2022-09-25T09:02:51.483Z,11.10
2022-09-25T09:04:55.579Z,11.73
2022-09-25T09:07:25.325Z,11.87
2022-09-25T09:09:25.047Z,11.23
2022-09-25T09:11:29.959Z,12.00
2022-09-25T09:13:36.010Z,11.60
2022-09-25T09:15:41.214Z,12.10
2022-09-25T09:17:43.880Z,10.73
2022-09-25T09:19:48.026Z,11.53
2022-09-25T09:22:00.731Z,12.33
2022-09-25T09:24:07.779Z,12.47
2022-09-25T09:26:14.053Z,11.83
2022-09-25T09:28:26.713Z,13.20
2022-09-25T09:30:33.194Z,13.60
2022-09-25T09:32:44.007Z,12.80
2022-09-25T09:35:12.747Z,12.77
2022-09-25T09:37:17.641Z,12.10
2022-09-25T09:39:21.586Z,12.80
2022-09-25T09:41:33.654Z,13.50
2022-09-25T09:43:43.478Z,12.17
2022-09-25T09:45:50.263Z,12.27
2022-09-25T09:47:57.344Z,13.20
2022-09-25T09:50:04.579Z,12.83
2022-09-25T09:52:10.201Z,12.47
2022-09-25T09:54:15.283Z,12.57
2022-09-25T09:56:19.484Z,11.67
2022-09-25T09:58:24.173Z,12.20
2022-09-25T10:00:26.831Z,11.97
2022-09-25T10:02:36.999Z,13.23
2022-09-25T10:04:39.644Z,12.97
2022-09-25T10:06:44.839Z,13.27
2022-09-25T10:08:47.406Z,13.30
2022-09-25T10:10:53.780Z,12.90
2022-09-25T10:13:04.202Z,13.60
2022-09-25T10:15:17.753Z,13.73
2022-09-25T10:17:21.061Z,12.40
2022-09-25T10:19:26.374Z,13.30
2022-09-25T10:21:31.265Z,13.03
2022-09-25T10:23:39.954Z,12.63
2022-09-25T10:25:43.399Z,13.10
2022-09-25T10:27:47.968Z,13.63
2022-09-25T10:30:07.359Z,14.40
2022-09-25T10:32:12.816Z,13.53
2022-09-25T10:34:21.333Z,13.60
2022-09-25T10:36:32.308Z,12.90
2022-09-25T10:38:37.670Z,13.60
2022-09-25T10:40:49.345Z,14.40
2022-09-25T10:43:05.216Z,13.53
2022-09-25T10:45:21.612Z,12.80
2022-09-25T10:47:42.396Z,12.80
2022-09-25T10:49:58.342Z,13.23
2022-09-25T10:52:08.155Z,12.43
2022-09-25T10:54:13.620Z,12.10
2022-09-25T10:56:18.922Z,13.53
2022-09-25T10:58:23.659Z,13.27
2022-09-25T11:00:27.282Z,13.57
2022-09-25T11:02:33.174Z,13.53
2022-09-25T11:04:36.145Z,12.97
2022-09-25T11:06:43.509Z,13.90
2022-09-25T11:08:49.303Z,13.43
2022-09-25T11:10:58.751Z,13.47
2022-09-25T11:13:03.022Z,13.50
2022-09-25T11:15:10.559Z,14.37
2022-09-25T11:17:32.994Z,13.20
2022-09-25T11:19:36.196Z,12.70
2022-09-25T11:21:39.782Z,12.43
2022-09-25T11:23:46.626Z,12.77
2022-09-25T11:25:54.952Z,12.60
2022-09-25T11:28:04.280Z,12.40
2022-09-25T11:30:12.504Z,12.83
2022-09-25T11:32:21.014Z,12.90
2022-09-25T11:34:29.730Z,12.63
2022-09-25T11:36:33.816Z,12.53
2022-09-25T11:38:52.104Z,11.40
2022-09-25T11:41:11.476Z,13.20
2022-09-25T11:43:17.949Z,12.63
2022-09-25T11:45:27.934Z,12.43
2022-09-25T11:47:36.786Z,12.00
2022-09-25T11:49:45.250Z,12.37
2022-09-25T11:52:07.484Z,11.80
2022-09-25T11:54:32.641Z,12.17
2022-09-25T11:56:39.700Z,12.00
2022-09-25T11:58:47.309Z,11.00
2022-09-25T12:00:54.031Z,11.87
2022-09-25T12:03:03.875Z,12.27
2022-09-25T12:05:17.617Z,11.23
2022-09-25T12:07:35.832Z,11.00
2022-09-25T12:09:46.837Z,11.37
2022-09-25T12:11:57.961Z,10.50
2022-09-25T12:14:03.312Z,12.07
2022-09-25T12:16:11.821Z,11.03
2022-09-25T12:18:18.583Z,10.93
2022-09-25T12:20:23.811Z,11.37
2022-09-25T12:22:32.563Z,10.77
2022-09-25T12:24:43.395Z,10.83
2022-09-25T12:26:51.132Z,11.10
2022-09-25T12:29:04.367Z,11.03
2022-09-25T12:31:09.359Z,10.80
2022-09-25T12:33:21.737Z,10.70
2022-09-25T12:35:34.985Z,10.63
2022-09-25T12:37:43.770Z,10.73
2022-09-25T12:39:48.594Z,10.50
2022-09-25T12:41:52.718Z,10.20
2022-09-25T12:43:59.282Z,9.97
2022-09-25T12:46:07.059Z,10.43
2022-09-25T12:48:13.026Z,10.40
2022-09-25T12:50:17.558Z,9.30
2022-09-25T12:52:22.480Z,10.80
2022-09-25T12:54:29.152Z,9.40
2022-09-25T12:56:34.665Z,8.77
2022-09-25T12:58:45.586Z,9.37
2022-09-25T13:00:53.052Z,9.90
2022-09-25T13:02:59.483Z,9.30
2022-09-25T13:05:07.351Z,10.80
2022-09-25T13:07:23.635Z,9.30
2022-09-25T13:09:31.831Z,9.97
2022-09-25T13:11:38.166Z,9.33
2022-09-25T13:13:45.399Z,9.10
2022-09-25T13:15:52.269Z,8.63
2022-09-25T13:17:55.691Z,10.03
2022-09-25T13:20:25.310Z,8.93
2022-09-25T13:22:28.012Z,9.37
2022-09-25T13:24:30.743Z,9.03
2022-09-25T13:26:33.523Z,9.03
2022-09-25T13:28:38.356Z,8.60
2022-09-25T13:30:41.003Z,9.20
2022-09-25T13:32:47.763Z,8.60
2022-09-25T13:34:52.726Z,8.53
2022-09-25T13:36:56.754Z,8.50
2022-09-25T13:39:12.235Z,9.47
2022-09-25T13:41:15.054Z,8.40
2022-09-25T13:43:20.521Z,7.80
2022-09-25T13:45:29.168Z,7.20
2022-09-25T13:47:50.049Z,8.60
2022-09-25T13:49:54.099Z,8.33
2022-09-25T13:51:56.687Z,8.30
2022-09-25T13:54:03.174Z,8.03
2022-09-25T13:56:30.311Z,7.23
2022-09-25T13:59:08.302Z,8.40
2022-09-25T14:01:12.662Z,8.00
2022-09-25T14:03:31.743Z,7.60
2022-09-25T14:05:36.366Z,8.07
2022-09-25T14:07:40.976Z,7.37
2022-09-25T14:09:45.918Z,7.83
2022-09-25T14:11:52.536Z,7.30
2022-09-25T14:14:10.337Z,7.90
2022-09-25T14:16:18.289Z,7.67
2022-09-25T14:18:21.905Z,7.10
2022-09-25T14:20:32.332Z,7.73
2022-09-25T14:22:39.274Z,7.30
2022-09-25T14:24:48.049Z,7.10
2022-09-25T14:26:53.081Z,7.90
2022-09-25T14:28:57.205Z,7.50
2022-09-25T14:31:08.310Z,7.10
2022-09-25T14:33:28.754Z,7.20
2022-09-25T14:35:39.047Z,7.20
2022-09-25T14:37:53.410Z,7.13
2022-09-25T14:40:04.001Z,6.73
2022-09-25T14:42:23.243Z,6.67
2022-09-25T14:44:51.527Z,6.50
2022-09-25T14:46:54.474Z,7.00
2022-09-25T14:48:59.444Z,7.63
2022-09-25T14:51:04.761Z,6.70
2022-09-25T14:53:09.027Z,6.57
2022-09-25T14:55:16.160Z,7.63
2022-09-25T14:57:25.678Z,6.60
2022-09-25T14:59:31.311Z,6.80
2022-09-25T15:01:33.942Z,6.50
2022-09-25T15:03:36.915Z,6.80
2022-09-25T15:05:41.481Z,7.10
2022-09-25T15:07:46.608Z,6.50
2022-09-25T15:09:49.494Z,6.57
2022-09-25T15:11:54.735Z,5.70
2022-09-25T15:14:10.318Z,6.60
2022-09-25T15:16:26.030Z,6.33
2022-09-25T15:18:28.738Z,6.33
2022-09-25T15:20:32.421Z,6.70
2022-09-25T15:22:36.907Z,6.20
2022-09-25T15:24:41.711Z,6.57
2022-09-25T15:26:49.424Z,6.60
2022-09-25T15:28:52.689Z,6.00
2022-09-25T15:30:56.085Z,6.87
2022-09-25T15:33:01.067Z,6.27
2022-09-25T15:35:08.835Z,7.10
2022-09-25T15:37:26.078Z,6.10
2022-09-25T15:39:29.397Z,5.90
2022-09-25T15:41:33.323Z,6.23
2022-09-25T15:43:36.004Z,6.13
2022-09-25T15:45:40.872Z,5.90
2022-09-25T15:47:52.271Z,6.50
2022-09-25T15:49:55.812Z,6.50
2022-09-25T15:52:15.168Z,7.00
2022-09-25T15:54:28.180Z,7.07
2022-09-25T15:56:34.614Z,6.03
2022-09-25T15:58:44.148Z,6.83
2022-09-25T16:01:13.083Z,6.43
2022-09-25T16:03:31.154Z,6.70
2022-09-25T16:05:35.399Z,6.73
2022-09-25T16:07:39.010Z,6.40
2022-09-25T16:09:41.586Z,5.77
2022-09-25T16:11:45.488Z,6.77
2022-09-25T16:13:49.126Z,6.50
2022-09-25T16:15:52.544Z,6.50
2022-09-25T16:17:55.874Z,6.97
2022-09-25T16:20:00.010Z,6.13
2022-09-25T16:22:15.716Z,6.53
2022-09-25T16:24:19.266Z,6.20
2022-09-25T16:26:23.030Z,6.03
2022-09-25T16:28:28.627Z,5.90
2022-09-25T16:30:31.467Z,6.23
2022-09-25T16:32:34.094Z,6.10
2022-09-25T16:34:38.052Z,5.97
2022-09-25T16:36:42.779Z,6.30
2022-09-25T16:39:03.721Z,6.27
2022-09-25T16:41:07.082Z,6.10
2022-09-25T16:43:25.655Z,5.70
2022-09-25T16:45:34.030Z,6.03
2022-09-25T16:47:36.663Z,6.77
2022-09-25T16:49:39.555Z,7.03
2022-09-25T16:51:45.302Z,6.60
2022-09-25T16:53:50.652Z,6.10
2022-09-25T16:55:53.777Z,6.40
2022-09-25T16:57:59.290Z,6.33
2022-09-25T17:00:02.920Z,6.77
2022-09-25T17:02:29.644Z,6.83
2022-09-25T17:04:32.823Z,6.60
2022-09-25T17:06:40.627Z,6.07
2022-09-25T17:08:43.212Z,6.67
2022-09-25T17:10:45.914Z,6.60
2022-09-25T17:12:53.490Z,6.53
2022-09-25T17:14:56.774Z,6.10
2022-09-25T17:16:59.357Z,6.13
2022-09-25T17:19:09.821Z,6.83
2022-09-25T17:21:14.208Z,7.30
2022-09-25T17:23:17.146Z,6.90
2022-09-25T17:25:23.943Z,7.60
2022-09-25T17:27:30.004Z,6.67
2022-09-25T17:29:32.579Z,6.00
2022-09-25T17:31:35.601Z,7.10
2022-09-25T17:33:38.247Z,7.00
2022-09-25T17:35:43.907Z,7.37
2022-09-25T17:37:52.432Z,7.50
2022-09-25T17:39:55.140Z,7.57
2022-09-25T17:42:03.595Z,7.97
2022-09-25T17:44:13.869Z,8.60
2022-09-25T17:46:19.109Z,8.77
2022-09-25T17:48:27.247Z,8.93
2022-09-25T17:50:35.790Z,7.73
2022-09-25T17:52:39.666Z,7.90
2022-09-25T17:54:42.927Z,8.10
2022-09-25T17:56:46.661Z,7.80
2022-09-25T17:58:57.307Z,8.30
2022-09-25T18:01:00.719Z,8.17
2022-09-25T18:03:03.397Z,8.03
2022-09-25T18:05:06.915Z,8.63
2022-09-25T18:07:13.200Z,8.50
2022-09-25T18:09:17.188Z,8.43
2022-09-25T18:11:19.828Z,8.20
2022-09-25T18:13:23.346Z,9.30
2022-09-25T18:15:26.324Z,9.10
2022-09-25T18:17:31.815Z,9.60
2022-09-25T18:19:45.755Z,8.10
2022-09-25T18:21:59.345Z,9.20
2022-09-25T18:24:02.501Z,8.70
2022-09-25T18:26:07.109Z,9.90
2022-09-25T18:28:22.989Z,9.50
2022-09-25T18:30:26.308Z,8.70
2022-09-25T18:32:30.927Z,8.77
2022-09-25T18:34:33.522Z,8.60
2022-09-25T18:36:37.852Z,9.60
2022-09-25T18:38:40.994Z,9.10
2022-09-25T18:40:44.160Z,8.67
2022-09-25T18:42:49.313Z,9.33
2022-09-25T18:44:55.392Z,9.13
2022-09-25T18:47:02.068Z,9.77
2022-09-25T18:49:06.566Z,8.80
2022-09-25T18:51:11.150Z,8.33
2022-09-25T18:53:16.309Z,9.23
2022-09-25T18:55:21.074Z,9.50
2022-09-25T18:57:27.646Z,9.13
2022-09-25T18:59:34.497Z,9.17
2022-09-25T19:01:40.505Z,10.17
2022-09-25T19:03:44.614Z,9.70
2022-09-25T19:05:58.393Z,10.20
2022-09-25T19:08:02.449Z,9.73
2022-09-25T19:10:18.189Z,8.93
2022-09-25T19:12:21.454Z,10.20
2022-09-25T19:14:25.302Z,10.50
2022-09-25T19:16:33.097Z,10.13
2022-09-25T19:18:40.378Z,9.73
2022-09-25T19:20:49.608Z,9.63
2022-09-25T19:22:53.209Z,10.00
2022-09-25T19:25:03.942Z,10.20
2022-09-25T19:27:10.651Z,9.80
2022-09-25T19:29:19.817Z,9.37
2022-09-25T19:31:25.939Z,10.30
2022-09-25T19:33:32.185Z,10.23
2022-09-25T19:35:34.793Z,9.37
2022-09-25T19:37:37.545Z,9.70
2022-09-25T19:39:54.405Z,9.60
2022-09-25T19:41:57.463Z,9.33
2022-09-25T19:44:01.736Z,9.83
2022-09-25T19:46:05.040Z,9.93
2022-09-25T19:48:08.007Z,9.37
2022-09-25T19:50:12.561Z,8.80
2022-09-25T19:52:16.916Z,9.70
2022-09-25T19:54:19.587Z,9.73
2022-09-25T19:56:22.512Z,9.33
2022-09-25T19:58:25.621Z,9.50
2022-09-25T20:00:29.536Z,9.80
2022-09-25T20:02:35.085Z,9.70
2022-09-25T20:04:38.085Z,9.80
2022-09-25T20:06:42.122Z,10.17
2022-09-25T20:08:44.945Z,10.00
2022-09-25T20:10:47.668Z,9.43
2022-09-25T20:12:50.791Z,10.03
2022-09-25T20:14:53.383Z,9.50
2022-09-25T20:16:56.002Z,10.67
2022-09-25T20:19:03.482Z,10.30
2022-09-25T20:21:07.043Z,9.60
2022-09-25T20:23:11.049Z,9.70
2022-09-25T20:25:13.590Z,10.30
2022-09-25T20:27:19.722Z,9.33
2022-09-25T20:29:25.031Z,9.00
2022-09-25T20:31:28.280Z,9.80
2022-09-25T20:33:34.550Z,9.20
2022-09-25T20:35:37.808Z,9.90
2022-09-25T20:37:40.817Z,9.77
2022-09-25T20:39:45.342Z,9.67
2022-09-25T20:41:48.701Z,9.20
2022-09-25T20:43:51.908Z,10.20
2022-09-25T20:45:57.574Z,10.10
2022-09-25T20:48:00.515Z,10.07
2022-09-25T20:50:04.824Z,9.67
2022-09-25T20:52:09.943Z,9.10
2022-09-25T20:54:12.856Z,9.43
2022-09-25T20:56:17.581Z,9.40
2022-09-25T20:58:20.527Z,10.40
2022-09-25T21:00:26.126Z,9.87
2022-09-25T21:02:29.611Z,9.83
2022-09-25T21:04:32.676Z,10.33
2022-09-25T21:06:35.996Z,9.97
2022-09-25T21:08:38.547Z,9.50
2022-09-25T21:10:41.638Z,9.77
2022-09-25T21:12:45.877Z,9.57
2022-09-25T21:14:49.272Z,9.70
2022-09-25T21:16:52.218Z,9.37
2022-09-25T21:18:56.332Z,10.03
2022-09-25T21:21:00.988Z,9.07
2022-09-25T21:23:03.587Z,9.60
2022-09-25T21:25:07.009Z,9.77
2022-09-25T21:27:09.908Z,8.90
2022-09-25T21:29:14.512Z,8.57
2022-09-25T21:31:18.154Z,9.90
2022-09-25T21:33:21.486Z,10.17
2022-09-25T21:35:24.185Z,9.50
2022-09-25T21:37:26.749Z,8.90
2022-09-25T21:39:29.833Z,8.40
2022-09-25T21:41:32.455Z,9.63
2022-09-25T21:43:36.071Z,9.40
2022-09-25T21:45:40.420Z,8.37
2022-09-25T21:47:43.398Z,9.10
2022-09-25T21:49:45.961Z,8.90
2022-09-25T21:51:49.530Z,8.70
2022-09-25T21:53:55.490Z,9.57
2022-09-25T21:56:02.319Z,8.80
2022-09-25T21:58:04.874Z,8.97
2022-09-25T22:00:08.276Z,8.63
2022-09-25T22:02:12.134Z,8.93
2022-09-25T22:04:15.698Z,9.10
2022-09-25T22:06:19.987Z,9.03
2022-09-25T22:08:22.572Z,8.77
2022-09-25T22:10:25.379Z,8.63
2022-09-25T22:12:28.257Z,9.00
2022-09-25T22:14:30.822Z,8.43
2022-09-25T22:16:34.063Z,8.93
2022-09-25T22:18:43.055Z,9.40
2022-09-25T22:20:45.696Z,9.20
2022-09-25T22:22:49.176Z,10.07
2022-09-25T22:24:52.480Z,8.87
2022-09-25T22:26:55.878Z,9.63
2022-09-25T22:28:58.755Z,10.37
2022-09-25T22:31:04.750Z,10.73
2022-09-25T22:33:07.870Z,10.07
2022-09-25T22:35:12.049Z,9.67
2022-09-25T22:37:14.765Z,9.77
2022-09-25T22:39:18.666Z,9.73
2022-09-25T22:41:22.187Z,9.17
2022-09-25T22:43:24.737Z,10.07
2022-09-25T22:45:27.374Z,9.60
2022-09-25T22:47:31.225Z,9.60
2022-09-25T22:49:34.269Z,9.90
2022-09-25T22:51:38.829Z,9.47
2022-09-25T22:53:41.412Z,9.40
2022-09-25T22:55:43.981Z,10.10
2022-09-25T22:57:47.181Z,9.53
2022-09-25T22:59:49.770Z,9.80
2022-09-25T23:01:53.570Z,9.10
2022-09-25T23:03:56.472Z,9.30
2022-09-25T23:06:00.560Z,9.20
2022-09-25T23:08:04.436Z,10.10
2022-09-25T23:10:08.012Z,9.30
2022-09-25T23:12:10.578Z,9.93
2022-09-25T23:14:16.608Z,8.70
2022-09-25T23:16:19.243Z,9.77
2022-09-25T23:18:21.829Z,9.73
2022-09-25T23:20:24.668Z,9.20
2022-09-25T23:22:27.712Z,9.67
2022-09-25T23:24:31.608Z,9.03
2022-09-25T23:26:34.233Z,9.03
2022-09-25T23:28:37.573Z,9.03
2022-09-25T23:30:40.634Z,10.10
2022-09-25T23:32:43.315Z,10.00
2022-09-25T23:34:45.891Z,9.67
2022-09-25T23:36:48.498Z,9.57
2022-09-25T23:38:53.202Z,9.53
2022-09-25T23:40:57.201Z,9.23
2022-09-25T23:43:01.794Z,9.20
2022-09-25T23:45:04.465Z,8.93
2022-09-25T23:47:07.363Z,10.43
2022-09-25T23:49:10.241Z,10.17
2022-09-25T23:51:13.042Z,9.63
2022-09-25T23:53:15.630Z,9.77
2022-09-25T23:55:18.866Z,9.33
2022-09-25T23:57:22.719Z,10.00
2022-09-25T23:59:25.289Z,9.63
